Time;durP1;ratioP1;P1;durP2;ratioP2;P2;SDS_P1;SDS_P2;PMS_P1;PMS_P2;Temp;Humidity;BMP_temperature;BMP_pressure;BME280_temperature;BME280_humidity;BME280_pressure;Samples;Min_cycle;Max_cycle;Signal;HPM_P1;HPM_P2
2022/11/15 00:01:50;;;;;;;4.78;0.60;;;;;;;10.88;100.00;97784.50;5039092;28;20057;-87
2022/11/15 00:04:34;;;;;;;4.50;0.55;;;;;;;10.52;100.00;97792.81;5033335;28;20052;-87
2022/11/15 00:07:18;;;;;;;2.88;0.63;;;;;;;10.13;100.00;97795.34;5025272;28;20098;-87
2022/11/15 00:10:03;;;;;;;7.18;1.25;;;;;;;9.96;100.00;97797.63;5049722;28;20111;-87
2022/11/15 00:12:47;;;;;;;10.05;1.60;;;;;;;9.80;100.00;97809.41;5060031;28;20115;-86
2022/11/15 00:15:36;;;;;;;5.82;0.85;;;;;;;9.67;100.00;97813.69;5037554;28;20029;-86
2022/11/15 00:18:20;;;;;;;6.50;0.80;;;;;;;9.56;100.00;97814.28;5056751;28;20033;-86
2022/11/15 00:21:07;;;;;;;10.02;1.30;;;;;;;9.54;100.00;97835.59;5029195;28;20034;-87
2022/11/15 00:23:51;;;;;;;10.73;1.70;;;;;;;9.48;100.00;97831.13;5050855;28;20036;-86
2022/11/15 00:26:36;;;;;;;10.63;1.65;;;;;;;9.43;100.00;97837.00;5067010;28;20485;-86
2022/11/15 00:29:22;;;;;;;7.15;0.98;;;;;;;9.29;100.00;97836.19;5018912;28;20035;-86
2022/11/15 00:32:06;;;;;;;8.77;1.55;;;;;;;9.19;100.00;97843.66;5031958;28;20037;-87
2022/11/15 00:34:51;;;;;;;11.05;1.40;;;;;;;9.08;100.00;97834.50;5050443;28;20029;-86
2022/11/15 00:37:35;;;;;;;8.88;1.27;;;;;;;9.03;100.00;97824.56;5048594;28;20040;-86
2022/11/15 00:40:19;;;;;;;14.52;1.50;;;;;;;8.99;100.00;97835.69;5048940;28;20061;-87
2022/11/15 00:43:03;;;;;;;14.50;2.30;;;;;;;8.96;100.00;97846.63;5045170;28;20034;-87
2022/11/15 00:45:47;;;;;;;8.15;1.05;;;;;;;8.99;100.00;97854.16;5030670;28;20036;-86
2022/11/15 00:48:31;;;;;;;10.55;1.52;;;;;;;8.99;100.00;97851.50;5051525;28;20060;-86
2022/11/15 00:51:16;;;;;;;10.35;2.42;;;;;;;8.99;100.00;97852.34;5030851;28;20056;-85
2022/11/15 00:54:01;;;;;;;10.35;1.25;;;;;;;9.04;100.00;97847.28;5062056;28;20480;-87
2022/11/15 00:56:45;;;;;;;12.77;2.58;;;;;;;9.02;100.00;97846.66;5047100;28;20738;-86
2022/11/15 00:59:29;;;;;;;10.43;1.38;;;;;;;9.04;100.00;97844.66;5038728;28;20033;-86
2022/11/15 01:02:14;;;;;;;12.85;2.22;;;;;;;9.05;100.00;97842.81;5043655;28;20120;-87
2022/11/15 01:04:58;;;;;;;12.40;1.60;;;;;;;9.03;100.00;97848.28;5034788;28;20037;-86
2022/11/15 01:07:42;;;;;;;14.18;1.85;;;;;;;9.05;100.00;97848.91;5039068;28;20101;-87
2022/11/15 01:10:27;;;;;;;15.00;2.13;;;;;;;9.06;100.00;97853.16;5049905;28;20657;-86
2022/11/15 01:13:11;;;;;;;15.18;1.77;;;;;;;9.07;100.00;97851.34;5043548;28;20040;-86
2022/11/15 01:15:55;;;;;;;14.80;1.98;;;;;;;9.02;100.00;97844.03;5060566;28;20037;-87
2022/11/15 01:18:39;;;;;;;12.90;2.03;;;;;;;8.99;100.00;97839.16;5034552;28;20035;-86
2022/11/15 01:21:23;;;;;;;17.10;1.95;;;;;;;8.96;100.00;97860.63;5046082;28;20112;-87
2022/11/15 01:24:11;;;;;;;15.35;2.13;;;;;;;8.95;100.00;97856.34;5029833;28;20041;-87
2022/11/15 01:26:56;;;;;;;14.77;1.85;;;;;;;8.90;100.00;97856.94;5035800;28;20127;-86
2022/11/15 01:29:40;;;;;;;16.98;1.48;;;;;;;8.89;100.00;97860.59;5037390;28;20598;-86
2022/11/15 01:32:24;;;;;;;17.95;1.77;;;;;;;8.86;100.00;97871.53;5048436;28;20040;-87
2022/11/15 01:35:09;;;;;;;11.13;1.85;;;;;;;8.80;100.00;97874.97;5053976;28;20040;-86
2022/11/15 01:37:54;;;;;;;10.38;2.45;;;;;;;8.77;100.00;97867.44;5028758;28;20044;-86
2022/11/15 01:40:38;;;;;;;13.07;1.70;;;;;;;8.75;100.00;97867.66;5045374;28;20413;-86
2022/11/15 01:43:35;;;;;;;11.90;1.73;;;;;;;8.72;100.00;97865.41;5031830;28;20087;-86
2022/11/15 01:46:19;;;;;;;;;;;;;;;8.60;100.00;97851.19;5038211;28;20071;-87
2022/11/15 01:49:14;;;;;;;16.83;1.92;;;;;;;8.62;100.00;97847.34;5048235;28;19927;-86
2022/11/15 01:52:01;;;;;;;17.27;2.25;;;;;;;8.61;100.00;97853.63;5050885;28;20128;-86
2022/11/15 01:54:48;;;;;;;10.20;1.70;;;;;;;8.58;100.00;97848.75;5027440;28;20504;-86
2022/11/15 01:57:34;;;;;;;12.98;2.00;;;;;;;8.53;100.00;97844.03;5051381;28;20033;-87
2022/11/15 02:00:18;;;;;;;13.38;2.08;;;;;;;8.47;100.00;97863.25;5041846;28;20107;-86
2022/11/15 02:03:03;;;;;;;20.70;2.63;;;;;;;8.40;100.00;97857.94;5035682;28;20025;-86
2022/11/15 02:05:47;;;;;;;15.80;2.13;;;;;;;8.36;100.00;97861.94;5009009;28;20043;-86
2022/11/15 02:08:31;;;;;;;20.80;2.40;;;;;;;8.36;100.00;97869.06;5046953;28;20508;-87
2022/11/15 02:11:15;;;;;;;14.00;2.40;;;;;;;8.29;100.00;97864.56;5023513;28;20029;-86
2022/11/15 02:14:02;;;;;;;23.38;2.53;;;;;;;8.32;100.00;97874.69;5042811;28;20036;-86
2022/11/15 02:16:46;;;;;;;15.07;2.00;;;;;;;8.31;100.00;97877.53;5034640;28;20486;-86
2022/11/15 02:19:36;;;;;;;15.85;2.58;;;;;;;8.31;100.00;97888.84;5032277;28;20175;-87
2022/11/15 02:22:42;;;;;;;12.15;2.15;;;;;;;8.35;100.00;97891.91;5034589;28;20048;-85
2022/11/15 02:25:53;;;;;;;17.30;2.60;;;;;;;8.29;100.00;97906.69;5048995;28;20038;-85
2022/11/15 02:28:43;;;;;;;17.30;1.92;;;;;;;8.26;100.00;97906.22;5034473;28;20029;-87
2022/11/15 02:31:44;;;;;;;9.63;2.45;;;;;;;8.28;100.00;97901.59;5029873;28;20057;-86
2022/11/15 02:34:32;;;;;;;13.65;1.73;;;;;;;8.30;100.00;97892.50;5046787;28;20052;-86
2022/11/15 02:37:41;;;;;;;19.98;1.80;;;;;;;8.31;100.00;97888.06;5039357;28;20382;-86
2022/11/15 02:40:46;;;;;;;21.92;2.80;;;;;;;8.28;100.00;97877.91;5036087;28;20043;-86
2022/11/15 02:43:58;;;;;;;19.15;3.30;;;;;;;8.26;100.00;97882.56;5046387;28;20029;-87
2022/11/15 02:49:56;;;;;;;16.02;2.08;;;;;;;8.18;100.00;97892.22;5036943;28;20037;-86
2022/11/15 02:52:40;;;;;;;16.48;1.65;;;;;;;8.11;100.00;97911.59;5065659;28;20029;-86
2022/11/15 02:55:48;;;;;;;14.75;2.10;;;;;;;8.10;100.00;97926.56;5035771;28;20033;-86
2022/11/15 02:58:48;;;;;;;16.55;2.40;;;;;;;8.02;100.00;97929.34;5066482;28;20063;-87
2022/11/15 03:01:55;;;;;;;13.25;2.10;;;;;;;8.00;100.00;97923.44;5047786;28;20485;-86
2022/11/15 03:04:57;;;;;;;16.60;2.78;;;;;;;8.01;100.00;97920.63;5051489;28;20032;-86
2022/11/15 03:08:01;;;;;;;19.35;2.15;;;;;;;8.00;100.00;97908.47;5029657;28;20036;-86
2022/11/15 03:10:59;;;;;;;15.88;2.83;;;;;;;8.04;100.00;97906.28;5031986;28;20029;-86
2022/11/15 03:14:07;;;;;;;11.90;1.88;;;;;;;8.04;100.00;97920.25;5033018;28;20037;-87
2022/11/15 03:17:06;;;;;;;19.15;2.88;;;;;;;7.99;100.00;97911.31;5040051;28;20047;-86
2022/11/15 03:19:55;;;;;;;15.05;2.08;;;;;;;7.92;100.00;97916.50;5046126;28;20051;-86
2022/11/15 03:22:44;;;;;;;16.77;2.20;;;;;;;7.86;100.00;97910.19;5046817;28;20029;-84
2022/11/15 03:25:30;;;;;;;20.42;2.60;;;;;;;7.80;100.00;97901.22;5052858;28;20087;-84
2022/11/15 03:28:22;;;;;;;15.13;1.65;;;;;;;7.77;100.00;97901.59;5042715;28;20033;-86
2022/11/15 03:34:35;;;;;;;14.60;2.65;;;;;;;7.75;100.00;97918.59;5053855;28;20401;-86
2022/11/15 03:37:24;;;;;;;15.88;3.38;;;;;;;7.69;100.00;97907.81;5032126;28;20049;-86
2022/11/15 03:40:10;;;;;;;12.07;1.65;;;;;;;7.69;100.00;97912.28;5045982;28;20311;-86
2022/11/15 03:43:30;;;;;;;15.50;1.92;;;;;;;7.70;100.00;97913.91;5045962;28;20486;-86
2022/11/15 03:46:20;;;;;;;12.38;1.92;;;;;;;7.65;100.00;97916.28;5035456;28;20037;-86
2022/11/15 03:49:20;;;;;;;15.52;2.00;;;;;;;7.66;100.00;97925.81;5032419;28;20171;-84
2022/11/15 03:52:05;;;;;;;17.63;3.55;;;;;;;7.65;100.00;97909.22;5063791;28;20486;-84
2022/11/15 03:54:52;;;;;;;15.70;2.47;;;;;;;7.65;100.00;97909.22;5048585;28;20029;-86
2022/11/15 03:57:37;;;;;;;16.48;2.00;;;;;;;7.64;100.00;97917.28;5053926;28;20033;-84
2022/11/15 04:00:22;;;;;;;16.80;2.55;;;;;;;7.65;100.00;97924.97;5032039;28;20044;-83
2022/11/15 04:03:07;;;;;;;10.52;1.60;;;;;;;7.62;100.00;97933.25;5051213;28;20074;-84
2022/11/15 04:05:52;;;;;;;14.30;1.52;;;;;;;7.61;100.00;97925.53;5051774;28;20086;-84
2022/11/15 04:08:36;;;;;;;16.27;2.08;;;;;;;7.60;100.00;97897.63;5035320;28;20490;-87
2022/11/15 04:11:20;;;;;;;18.30;2.25;;;;;;;7.57;100.00;97909.31;5037872;28;20041;-86
2022/11/15 04:14:05;;;;;;;12.15;2.17;;;;;;;7.53;100.00;97924.66;5054094;28;20065;-86
2022/11/15 04:16:50;;;;;;;13.98;1.95;;;;;;;7.37;100.00;97938.88;5026740;28;20439;-87
2022/11/15 04:25:42;;;;;;;15.25;1.80;;;;;;;7.24;100.00;97899.28;5044801;28;20029;-86
2022/11/15 04:28:27;;;;;;;12.82;2.28;;;;;;;7.26;100.00;97905.97;5038815;28;20043;-84
2022/11/15 04:31:11;;;;;;;14.63;3.10;;;;;;;7.34;100.00;97914.75;5031199;28;20077;-84
2022/11/15 04:33:57;;;;;;;15.77;2.58;;;;;;;7.37;100.00;97927.53;5038185;28;20060;-86
2022/11/15 04:39:44;;;;;;;18.35;1.88;;;;;;;7.31;100.00;97931.72;5059781;28;20037;-86
2022/11/15 04:42:29;;;;;;;18.80;2.88;;;;;;;7.34;100.00;97933.16;5045796;28;20493;-86
2022/11/15 04:45:13;;;;;;;12.45;1.85;;;;;;;7.37;100.00;97932.78;5054076;28;20032;-86
2022/11/15 04:47:58;;;;;;;16.67;1.95;;;;;;;7.38;100.00;97918.63;5030720;28;20069;-85
2022/11/15 04:50:42;;;;;;;25.40;2.22;;;;;;;7.32;100.00;97905.25;5027456;28;20045;-86
2022/11/15 04:53:26;;;;;;;11.07;2.53;;;;;;;7.30;100.00;97904.63;5036887;28;20064;-86
2022/11/15 04:56:11;;;;;;;14.30;2.20;;;;;;;7.20;100.00;97899.66;5029755;28;20068;-86
2022/11/15 04:58:55;;;;;;;9.85;1.92;;;;;;;7.07;100.00;97918.72;5034665;28;20034;-86
2022/11/15 05:01:39;;;;;;;8.15;1.40;;;;;;;6.92;100.00;97921.38;5048358;28;20048;-86
2022/11/15 05:04:24;;;;;;;11.13;1.67;;;;;;;6.92;100.00;97928.44;5041319;28;20124;-86
2022/11/15 05:07:08;;;;;;;15.15;1.80;;;;;;;6.97;100.00;97922.63;5045310;28;20036;-86
2022/11/15 05:09:52;;;;;;;17.60;1.45;;;;;;;6.93;100.00;97914.28;5054308;28;20126;-84
2022/11/15 05:12:37;;;;;;;12.32;1.63;;;;;;;6.99;100.00;97928.53;5039977;28;20048;-85
2022/11/15 05:15:22;;;;;;;10.57;1.88;;;;;;;6.98;100.00;97932.94;5034746;28;20041;-84
2022/11/15 05:18:06;;;;;;;8.77;1.55;;;;;;;7.03;100.00;97945.53;5035993;28;20035;-86
2022/11/15 05:20:51;;;;;;;15.30;2.10;;;;;;;7.06;100.00;97951.25;5025759;28;20033;-87
2022/11/15 05:23:35;;;;;;;15.80;2.30;;;;;;;7.05;100.00;97952.25;5035646;28;20100;-84
2022/11/15 05:26:19;;;;;;;13.80;1.60;;;;;;;7.06;100.00;97946.00;5030025;28;20037;-84
2022/11/15 05:29:04;;;;;;;21.80;2.00;;;;;;;7.06;100.00;97951.25;5034684;28;20685;-86
2022/11/15 05:31:48;;;;;;;17.27;2.08;;;;;;;7.10;100.00;97954.31;5043455;28;20098;-86
2022/11/15 05:34:33;;;;;;;8.70;1.65;;;;;;;7.11;100.00;97947.25;5041436;28;20037;-84
2022/11/15 05:37:18;;;;;;;15.70;2.15;;;;;;;7.13;100.00;97948.69;5037768;28;20577;-84
2022/11/15 05:40:03;;;;;;;17.08;1.80;;;;;;;7.13;100.00;97947.88;5040751;28;20043;-86
2022/11/15 05:42:48;;;;;;;7.13;1.48;;;;;;;7.14;100.00;97944.25;5008026;28;20498;-86
2022/11/15 05:45:34;;;;;;;15.07;2.28;;;;;;;7.16;100.00;97952.75;5045570;28;20031;-85
2022/11/15 05:48:19;;;;;;;17.65;2.58;;;;;;;7.14;100.00;97955.56;5047298;28;20052;-85
2022/11/15 05:51:06;;;;;;;14.25;1.67;;;;;;;7.17;100.00;97954.38;5041587;28;20087;-84
2022/11/15 05:53:52;;;;;;;16.90;2.30;;;;;;;7.17;100.00;97949.94;5048588;28;20495;-83
2022/11/15 05:56:37;;;;;;;11.38;1.98;;;;;;;7.12;100.00;97944.44;5034862;28;20551;-85
2022/11/15 05:59:21;;;;;;;14.13;1.80;;;;;;;7.07;100.00;97939.72;5031944;28;20513;-87
2022/11/15 06:02:06;;;;;;;23.13;2.60;;;;;;;7.06;100.00;97937.28;5029408;28;20045;-86
2022/11/15 06:04:50;;;;;;;16.45;1.75;;;;;;;7.03;100.00;97943.72;5042260;28;20061;-86
2022/11/15 06:07:34;;;;;;;9.20;1.85;;;;;;;7.04;100.00;97936.69;5045793;28;20036;-86
2022/11/15 06:10:18;;;;;;;21.95;3.65;;;;;;;6.97;100.00;97943.63;5047229;28;20048;-86
2022/11/15 06:13:04;;;;;;;14.60;1.92;;;;;;;6.82;100.00;97940.03;5038091;28;20555;-86
2022/11/15 06:15:49;;;;;;;14.35;1.55;;;;;;;6.73;100.00;97930.63;5043722;28;20055;-86
2022/11/15 06:18:34;;;;;;;19.92;2.38;;;;;;;6.74;100.00;97945.38;5043178;28;20068;-86
2022/11/15 06:21:18;;;;;;;15.35;1.70;;;;;;;6.76;100.00;97948.66;5039466;28;20041;-86
2022/11/15 06:24:03;;;;;;;19.77;2.30;;;;;;;6.75;100.00;97949.66;5057533;28;20044;-86
2022/11/15 06:26:47;;;;;;;15.63;1.95;;;;;;;6.70;100.00;97952.00;5035366;28;20088;-86
2022/11/15 06:29:31;;;;;;;18.65;2.95;;;;;;;6.70;100.00;97954.63;5052427;28;20041;-84
2022/11/15 06:32:15;;;;;;;20.50;2.10;;;;;;;6.66;100.00;97961.22;5041166;28;20030;-84
2022/11/15 06:34:59;;;;;;;18.17;2.50;;;;;;;6.66;100.00;97948.91;5028857;28;20132;-87
2022/11/15 06:37:44;;;;;;;18.80;2.45;;;;;;;6.66;100.00;97948.91;5044149;28;20037;-86
2022/11/15 06:40:28;;;;;;;12.35;2.08;;;;;;;6.64;100.00;97950.09;5038474;28;20037;-87
2022/11/15 06:43:14;;;;;;;12.07;1.83;;;;;;;6.62;100.00;97946.81;5047075;28;20047;-85
2022/11/15 06:46:00;;;;;;;14.02;2.35;;;;;;;6.61;100.00;97946.00;5045871;28;20032;-85
2022/11/15 06:48:45;;;;;;;16.20;2.85;;;;;;;6.58;100.00;97947.19;5049853;28;20286;-86
2022/11/15 06:51:29;;;;;;;16.63;2.05;;;;;;;6.57;100.00;97942.94;5049511;28;20444;-86
2022/11/15 06:54:14;;;;;;;21.52;3.20;;;;;;;6.56;100.00;97937.88;5036489;28;20482;-84
2022/11/15 06:56:58;;;;;;;13.38;1.20;;;;;;;6.58;100.00;97946.38;5037326;28;20611;-84
2022/11/15 06:59:42;;;;;;;8.85;2.03;;;;;;;6.62;100.00;97949.44;5035995;28;20460;-87
2022/11/15 07:02:27;;;;;;;14.80;3.78;;;;;;;6.60;100.00;97956.69;5021858;28;20080;-84
2022/11/15 07:05:12;;;;;;;11.57;1.65;;;;;;;6.59;100.00;97963.75;5052416;28;20048;-85
2022/11/15 07:07:57;;;;;;;10.20;1.70;;;;;;;6.57;100.00;97965.75;5049131;28;20128;-87
2022/11/15 07:10:41;;;;;;;11.93;2.88;;;;;;;6.48;100.00;97965.03;5047416;28;20035;-86
2022/11/15 07:13:26;;;;;;;10.27;1.55;;;;;;;6.37;100.00;97968.88;5062738;28;20123;-87
2022/11/15 07:16:11;;;;;;;11.27;1.80;;;;;;;6.29;100.00;97969.75;5045247;28;20037;-86
2022/11/15 07:18:55;;;;;;;22.73;2.30;;;;;;;6.31;100.00;97977.47;5046421;28;20033;-84
2022/11/15 07:21:40;;;;;;;17.63;2.13;;;;;;;6.29;100.00;97987.34;5046241;28;20040;-84
2022/11/15 07:24:24;;;;;;;13.15;1.58;;;;;;;6.25;100.00;97986.88;5053404;28;20033;-85
2022/11/15 07:27:08;;;;;;;9.07;2.58;;;;;;;6.23;100.00;97986.22;5036957;28;20390;-83
2022/11/15 07:29:52;;;;;;;9.98;1.60;;;;;;;6.16;100.00;97980.06;5042797;28;20038;-86
2022/11/15 07:32:36;;;;;;;8.27;1.52;;;;;;;6.17;100.00;97982.50;5050736;28;20478;-87
2022/11/15 07:35:20;;;;;;;8.82;1.70;;;;;;;6.15;100.00;97971.38;5027528;28;20414;-86
2022/11/15 07:38:05;;;;;;;12.70;1.50;;;;;;;6.21;100.00;97977.72;5045419;28;20041;-86
2022/11/15 07:40:59;;;;;;;10.57;1.92;;;;;;;6.23;100.00;97970.47;5026219;28;20501;-87
2022/11/15 07:43:44;;;;;;;6.93;1.40;;;;;;;6.21;100.00;97962.00;5041682;28;20113;-84
2022/11/15 07:46:28;;;;;;;9.13;1.55;;;;;;;6.22;100.00;97963.63;5041169;28;20099;-84
2022/11/15 07:49:13;;;;;;;9.38;1.77;;;;;;;6.18;100.00;97967.59;5037455;28;20035;-85
2022/11/15 07:51:57;;;;;;;12.30;1.25;;;;;;;6.07;100.00;97972.25;5042975;28;20036;-84
2022/11/15 07:54:41;;;;;;;9.57;1.65;;;;;;;6.02;100.00;97961.44;5047149;28;20063;-86
2022/11/15 07:57:26;;;;;;;12.75;1.40;;;;;;;6.04;100.00;97967.38;5050443;28;20044;-86
2022/11/15 08:00:10;;;;;;;10.85;2.25;;;;;;;6.00;100.00;97960.81;5041535;28;20048;-87
2022/11/15 08:03:06;;;;;;;7.00;1.90;;;;;;;5.98;100.00;97964.59;5038659;28;20461;-87
2022/11/15 08:05:52;;;;;;;11.87;1.40;;;;;;;5.92;100.00;97959.09;5033240;28;20043;-87
2022/11/15 08:08:36;;;;;;;16.30;2.40;;;;;;;5.82;100.00;97964.56;5041116;28;20475;-87
2022/11/15 08:11:20;;;;;;;16.33;1.58;;;;;;;5.70;100.00;97974.63;5045238;28;20029;-87
2022/11/15 08:14:04;;;;;;;9.63;1.98;;;;;;;5.64;100.00;97971.91;5043682;28;20061;-88
2022/11/15 08:16:48;;;;;;;11.73;1.90;;;;;;;5.61;100.00;97980.91;5034549;28;20040;-87
2022/11/15 08:19:33;;;;;;;9.25;1.83;;;;;;;5.65;100.00;97982.22;5045230;28;20103;-86
2022/11/15 08:22:18;;;;;;;10.98;1.88;;;;;;;5.67;100.00;97979.41;5041927;28;20037;-86
2022/11/15 08:25:03;;;;;;;6.35;0.98;;;;;;;5.66;100.00;97978.59;5028523;28;20029;-84
2022/11/15 08:27:47;;;;;;;11.98;1.23;;;;;;;5.67;100.00;97979.41;5047304;28;20037;-85
2022/11/15 08:30:36;;;;;;;7.72;1.55;;;;;;;5.70;100.00;97976.44;5044037;28;20120;-84
2022/11/15 08:33:21;;;;;;;22.05;2.35;;;;;;;5.70;100.00;97985.09;5027345;28;20432;-86
2022/11/15 08:36:05;;;;;;;12.63;2.08;;;;;;;5.77;100.00;97990.47;5037319;28;20021;-87
2022/11/15 08:38:50;;;;;;;7.35;1.50;;;;;;;5.82;100.00;97988.16;5042137;28;20037;-84
2022/11/15 08:41:37;;;;;;;15.52;1.92;;;;;;;5.89;100.00;97987.44;5040918;28;20041;-84
2022/11/15 08:44:21;;;;;;;10.10;1.55;;;;;;;5.93;100.00;97981.69;5049082;28;20128;-85
2022/11/15 08:47:06;;;;;;;8.63;1.42;;;;;;;5.98;100.00;97983.78;5040085;28;20418;-85
2022/11/15 08:49:50;;;;;;;11.77;1.70;;;;;;;5.95;100.00;97984.94;5035164;28;20029;-84
2022/11/15 08:52:34;;;;;;;15.80;1.88;;;;;;;5.92;100.00;97985.31;5047902;28;20101;-84
2022/11/15 08:55:18;;;;;;;9.70;1.20;;;;;;;5.90;100.00;97989.06;5028507;28;20052;-83
2022/11/15 08:58:03;;;;;;;12.77;2.40;;;;;;;5.89;100.00;97987.44;5038216;28;20037;-87
2022/11/15 09:00:47;;;;;;;9.00;1.83;;;;;;;5.88;100.00;97981.38;5048644;28;20052;-86
2022/11/15 09:03:31;;;;;;;8.23;2.35;;;;;;;5.91;100.00;97985.47;5020946;28;20095;-87
2022/11/15 09:06:16;;;;;;;11.23;2.10;;;;;;;6.00;100.00;97980.97;5039160;28;20041;-88
2022/11/15 09:09:02;;;;;;;12.48;2.20;;;;;;;6.09;100.00;97995.69;5030224;28;20052;-88
2022/11/15 09:11:47;;;;;;;14.43;1.80;;;;;;;6.13;100.00;97990.91;5033582;28;20386;-88
2022/11/15 09:14:31;;;;;;;14.05;2.05;;;;;;;6.14;100.00;97992.53;5051725;28;20045;-89
2022/11/15 09:17:16;;;;;;;15.07;1.98;;;;;;;6.15;100.00;97989.72;5035204;28;20095;-88
2022/11/15 09:20:01;;;;;;;15.85;3.13;;;;;;;6.22;100.00;97983.78;5042663;28;20025;-87
2022/11/15 09:22:47;;;;;;;10.45;1.50;;;;;;;6.24;100.00;97987.88;5039468;28;20041;-88
2022/11/15 09:25:32;;;;;;;8.57;1.50;;;;;;;6.36;100.00;97984.78;5046712;28;20449;-87
2022/11/15 09:28:16;;;;;;;13.57;1.52;;;;;;;6.43;100.00;97975.22;5048484;28;20493;-84
2022/11/15 09:31:04;;;;;;;11.65;1.70;;;;;;;6.51;100.00;97969.09;5039523;28;20032;-84
2022/11/15 09:33:48;;;;;;;12.35;1.95;;;;;;;6.57;100.00;97966.56;5048431;28;20044;-84
2022/11/15 09:36:32;;;;;;;14.13;2.08;;;;;;;6.59;100.00;97966.38;5050905;28;20071;-84
2022/11/15 09:39:17;;;;;;;19.40;2.35;;;;;;;6.64;100.00;97963.22;5049203;28;20038;-84
2022/11/15 09:42:27;;;;;;;14.27;1.67;;;;;;;6.78;100.00;97958.97;5036774;28;20025;-84
2022/11/15 09:45:18;;;;;;;16.60;1.80;;;;;;;6.88;100.00;97950.81;5005642;28;20116;-87
2022/11/15 09:48:42;;;;;;;14.07;2.83;;;;;;;6.97;100.00;97962.84;5040475;28;20124;-84
2022/11/15 09:51:46;;;;;;;17.55;1.70;;;;;;;7.11;100.00;97950.69;5051236;28;21065;-83
2022/11/15 09:54:39;;;;;;;11.10;1.97;;;;;;;7.25;100.00;97950.84;5012831;28;20435;-86
2022/11/15 09:57:14;;;;;;;10.43;1.40;;;;;;;7.33;100.00;97948.09;5025085;28;20095;-87
2022/11/15 09:59:43;;;;;;;10.00;1.38;;;;;;;7.41;100.00;97934.84;5013427;28;20140;-87
2022/11/15 10:02:46;;;;;;;10.20;2.40;;;;;;;7.49;100.00;97936.56;5010920;28;20049;-87
2022/11/15 10:05:18;;;;;;;15.30;1.40;;;;;;;7.57;100.00;97935.63;5021240;28;20128;-86
2022/11/15 10:07:53;;;;;;;11.77;1.92;;;;;;;7.68;100.00;97926.41;5040502;28;20506;-85
2022/11/15 10:10:40;;;;;;;17.33;1.70;;;;;;;7.72;100.00;97919.78;5040481;28;20040;-84
2022/11/15 10:13:23;;;;;;;12.60;1.33;;;;;;;7.72;100.00;97925.06;5020643;28;20057;-84
2022/11/15 10:15:51;;;;;;;12.10;1.83;;;;;;;7.69;100.00;97925.44;5031882;28;20543;-84
2022/11/15 10:18:28;;;;;;;10.20;1.40;;;;;;;7.68;100.00;97935.13;5035856;28;20034;-86
2022/11/15 10:20:59;;;;;;;11.15;1.33;;;;;;;7.75;100.00;97921.22;5028141;28;20448;-86
2022/11/15 10:23:28;;;;;;;6.85;1.23;;;;;;;7.76;100.00;97928.09;5041563;28;20501;-83
2022/11/15 10:25:57;;;;;;;11.18;1.58;;;;;;;7.75;100.00;97922.03;5034680;28;20048;-83
2022/11/15 10:28:28;;;;;;;20.90;1.80;;;;;;;7.80;100.00;97924.91;5024057;28;20111;-86
2022/11/15 10:30:59;;;;;;;12.60;1.92;;;;;;;7.83;100.00;97918.47;5037865;28;20493;-86
2022/11/15 10:33:39;;;;;;;9.10;2.05;;;;;;;7.92;100.00;97913.88;5032616;28;20112;-86
2022/11/15 10:36:13;;;;;;;13.35;1.70;;;;;;;8.01;100.00;97907.47;5040569;28;20029;-86
2022/11/15 10:38:48;;;;;;;10.05;1.88;;;;;;;8.16;100.00;97911.84;5049226;28;20128;-86
2022/11/15 10:41:20;;;;;;;10.15;1.35;;;;;;;8.22;100.00;97903.16;5056893;28;20060;-86
2022/11/15 10:44:07;;;;;;;9.93;1.52;;;;;;;8.26;100.00;97896.53;5021653;28;20564;-86
2022/11/15 10:46:36;;;;;;;15.90;2.20;;;;;;;8.30;100.00;97892.50;5006645;28;20073;-86
2022/11/15 10:49:21;;;;;;;10.38;2.17;;;;;;;8.36;100.00;97890.91;5043294;28;20064;-86
2022/11/15 10:51:51;;;;;;;14.15;2.15;;;;;;;8.40;100.00;97897.41;5028313;28;20056;-87
2022/11/15 10:54:23;;;;;;;19.45;2.75;;;;;;;8.41;100.00;97892.94;5021420;28;20033;-84
2022/11/15 10:56:53;;;;;;;20.50;2.42;;;;;;;8.50;100.00;97893.63;5029892;28;20394;-84
2022/11/15 10:59:29;;;;;;;15.40;1.95;;;;;;;8.55;100.00;97881.53;5022196;28;20513;-86
2022/11/15 11:01:55;;;;;;;6.65;1.25;;;;;;;8.61;100.00;97879.94;5012028;28;20045;-86
2022/11/15 11:04:21;;;;;;;9.77;1.83;;;;;;;8.68;100.00;97869.41;5020125;28;20045;-87
2022/11/15 11:06:53;;;;;;;11.38;1.80;;;;;;;8.77;100.00;97865.63;5046618;28;20147;-87
2022/11/15 11:09:33;;;;;;;7.53;1.95;;;;;;;8.86;100.00;97863.63;5044916;28;20038;-84
2022/11/15 11:12:01;;;;;;;11.75;1.63;;;;;;;8.93;100.00;97861.03;5044567;28;20502;-84
2022/11/15 11:14:33;;;;;;;10.40;1.52;;;;;;;9.01;100.00;97863.50;5038386;28;20047;-84
2022/11/15 11:17:46;;;;;;;20.60;1.80;;;;;;;9.01;100.00;97855.59;5027128;28;20143;-84
2022/11/15 11:20:17;;;;;;;19.00;2.78;;;;;;;9.01;100.00;97863.50;5006489;28;20548;-87
2022/11/15 11:23:20;;;;;;;11.15;1.55;;;;;;;9.05;100.00;97853.34;5049255;28;20049;-83
2022/11/15 11:26:03;;;;;;;12.68;1.58;;;;;;;9.03;100.00;97850.91;5038280;28;20029;-83
2022/11/15 11:29:12;;;;;;;10.93;2.17;;;;;;;9.04;100.00;97852.56;5027145;28;20444;-87
2022/11/15 11:32:11;;;;;;;9.70;1.52;;;;;;;9.11;100.00;97851.75;5041378;28;20036;-87
2022/11/15 11:35:08;;;;;;;12.75;2.03;;;;;;;9.16;100.00;97842.22;5029325;28;20116;-86
2022/11/15 11:37:51;;;;;;;11.32;2.08;;;;;;;9.23;100.00;97836.97;5049554;28;20041;-87
2022/11/15 11:40:32;;;;;;;21.90;3.33;;;;;;;9.30;100.00;97834.38;5021315;28;20147;-87
2022/11/15 11:43:03;;;;;;;6.45;1.35;;;;;;;9.32;100.00;97848.13;5039264;28;20534;-84
2022/11/15 11:45:35;;;;;;;10.35;1.83;;;;;;;9.35;100.00;97853.00;5047113;28;20033;-84
2022/11/15 11:48:12;;;;;;;14.15;1.73;;;;;;;9.36;100.00;97845.91;5027482;28;20037;-87
2022/11/15 11:50:39;;;;;;;16.33;2.00;;;;;;;9.38;100.00;97852.59;5029935;28;20029;-87
2022/11/15 11:53:35;;;;;;;17.25;2.53;;;;;;;9.39;100.00;97845.50;4966298;28;20041;-87
2022/11/15 11:56:28;;;;;;;10.40;1.52;;;;;;;9.43;100.00;97837.00;5024924;28;20082;-87
2022/11/15 11:59:02;;;;;;;11.88;1.65;;;;;;;9.43;100.00;97834.38;5066107;28;20072;-87
2022/11/15 12:01:42;;;;;;;10.52;2.05;;;;;;;9.48;100.00;97835.56;5036988;28;20073;-88
2022/11/15 12:04:27;;;;;;;17.23;1.92;;;;;;;9.57;100.00;97833.56;5023800;28;20041;-86
2022/11/15 12:07:29;;;;;;;16.35;2.40;;;;;;;9.60;100.00;97833.16;5045231;28;20037;-87
2022/11/15 12:10:16;;;;;;;12.98;1.60;;;;;;;9.71;100.00;97826.47;4991753;28;20067;-84
2022/11/15 12:13:07;;;;;;;7.60;1.33;;;;;;;9.76;100.00;97821.38;5045574;28;20086;-87
2022/11/15 12:15:42;;;;;;;10.00;1.50;;;;;;;9.88;100.00;97813.66;5012224;28;20034;-87
2022/11/15 12:18:14;;;;;;;17.90;1.93;;;;;;;9.94;100.00;97812.84;5044466;28;20447;-87
2022/11/15 12:20:50;;;;;;;15.82;2.15;;;;;;;9.95;100.00;97811.00;5036631;28;20057;-87
2022/11/15 12:23:28;;;;;;;11.20;1.67;;;;;;;10.02;100.00;97815.25;5023266;28;20429;-88
2022/11/15 12:26:05;;;;;;;9.50;1.63;;;;;;;10.03;100.00;97808.16;5037318;28;20060;-88
2022/11/15 12:28:55;;;;;;;9.60;2.03;;;;;;;10.02;100.00;97796.78;5027167;28;20389;-87
2022/11/15 12:31:50;;;;;;;16.15;1.90;;;;;;;10.09;100.00;97803.88;5030905;28;20099;-87
2022/11/15 12:34:35;;;;;;;8.43;1.23;;;;;;;10.09;100.00;97799.41;5028838;28;20131;-84
2022/11/15 12:37:01;;;;;;;10.77;1.30;;;;;;;10.06;100.00;97791.91;5014445;28;20033;-83
2022/11/15 12:40:18;;;;;;;14.90;1.52;;;;;;;9.99;100.00;97789.28;5051435;28;20450;-88
2022/11/15 12:43:04;;;;;;;14.93;1.80;;;;;;;9.98;100.00;97789.50;5040390;28;20386;-87
2022/11/15 12:45:42;;;;;;;13.13;1.67;;;;;;;9.97;100.00;97791.31;5039778;28;20033;-88
2022/11/15 12:48:16;;;;;;;15.10;1.92;;;;;;;9.99;100.00;97786.66;5038230;28;20120;-88
2022/11/15 12:50:53;;;;;;;15.05;1.63;;;;;;;10.04;100.00;97775.47;5042783;28;20140;-87
2022/11/15 12:53:25;;;;;;;17.10;2.38;;;;;;;10.01;100.00;97773.25;5025127;28;20037;-87
2022/11/15 12:56:12;;;;;;;11.02;1.25;;;;;;;10.00;100.00;97766.34;5047344;28;20115;-88
2022/11/15 12:58:48;;;;;;;8.30;1.67;;;;;;;10.02;100.00;97761.66;5022931;28;20048;-88
2022/11/15 13:01:32;;;;;;;10.52;1.92;;;;;;;10.06;100.00;97765.53;5026989;28;20152;-88
2022/11/15 13:04:14;;;;;;;10.23;1.83;;;;;;;10.00;100.00;97756.59;5040426;28;20091;-87
2022/11/15 13:06:44;;;;;;;14.60;2.30;;;;;;;10.01;100.00;97757.41;5020411;28;20037;-88